sensor_id;sensor_type;location;lat;lon;timestamp;pressure;altitude;pressure_sealevel;temperature;humidity
31538;BME280;18147;51.952;6.146;2023-01-28T00:00:08;102841.81;;;2.96;99.67
31538;BME280;18147;51.952;6.146;2023-01-28T00:02:34;102839.16;;;2.96;98.88
31538;BME280;18147;51.952;6.146;2023-01-28T00:05:01;102837.38;;;3.04;96.86
31538;BME280;18147;51.952;6.146;2023-01-28T00:07:28;102840.03;;;2.98;99.79
31538;BME280;18147;51.952;6.146;2023-01-28T00:09:53;102842.66;;;2.88;100.00
31538;BME280;18147;51.952;6.146;2023-01-28T00:12:19;102852.31;;;2.76;100.00
31538;BME280;18147;51.952;6.146;2023-01-28T00:14:44;102845.31;;;2.97;99.66
31538;BME280;18147;51.952;6.146;2023-01-28T00:17:12;102852.31;;;2.89;98.95
31538;BME280;18147;51.952;6.146;2023-01-28T00:19:38;102853.19;;;2.91;99.13
31538;BME280;18147;51.952;6.146;2023-01-28T00:22:05;102854.06;;;2.96;97.92
31538;BME280;18147;51.952;6.146;2023-01-28T00:24:30;102850.56;;;2.91;97.83
31538;BME280;18147;51.952;6.146;2023-01-28T00:26:56;102843.53;;;2.93;97.38
31538;BME280;18147;51.952;6.146;2023-01-28T00:29:21;102846.16;;;3.05;97.56
31538;BME280;18147;51.952;6.146;2023-01-28T00:31:48;102844.41;;;3.01;96.93
31538;BME280;18147;51.952;6.146;2023-01-28T00:34:14;102841.78;;;2.99;97.23
31538;BME280;18147;51.952;6.146;2023-01-28T00:36:40;102846.19;;;2.97;98.22
31538;BME280;18147;51.952;6.146;2023-01-28T00:39:09;102851.44;;;2.96;100.00
31538;BME280;18147;51.952;6.146;2023-01-28T00:41:36;102851.44;;;2.91;100.00
31538;BME280;18147;51.952;6.146;2023-01-28T00:44:01;102867.25;;;3.03;100.00
31538;BME280;18147;51.952;6.146;2023-01-28T00:46:28;102864.63;;;2.99;100.00
31538;BME280;18147;51.952;6.146;2023-01-28T00:48:53;102864.63;;;3.09;100.00
31538;BME280;18147;51.952;6.146;2023-01-28T00:51:19;102864.63;;;3.11;100.00
31538;BME280;18147;51.952;6.146;2023-01-28T00:53:46;102866.38;;;2.89;100.00
31538;BME280;18147;51.952;6.146;2023-01-28T00:56:13;102869.00;;;2.83;100.00
31538;BME280;18147;51.952;6.146;2023-01-28T00:58:39;102874.25;;;2.84;100.00
31538;BME280;18147;51.952;6.146;2023-01-28T01:01:16;102874.28;;;2.77;100.00
31538;BME280;18147;51.952;6.146;2023-01-28T01:03:42;102873.38;;;2.75;100.00
31538;BME280;18147;51.952;6.146;2023-01-28T01:06:09;102865.47;;;2.73;100.00
31538;BME280;18147;51.952;6.146;2023-01-28T01:08:35;102869.88;;;2.77;100.00
31538;BME280;18147;51.952;6.146;2023-01-28T01:11:06;102868.09;;;2.79;100.00
31538;BME280;18147;51.952;6.146;2023-01-28T01:13:33;102873.34;;;2.64;98.20
31538;BME280;18147;51.952;6.146;2023-01-28T01:16:20;102871.59;;;2.65;100.00
31538;BME280;18147;51.952;6.146;2023-01-28T01:18:52;102872.47;;;2.70;99.15
31538;BME280;18147;51.952;6.146;2023-01-28T01:21:19;102869.84;;;2.70;97.10
31538;BME280;18147;51.952;6.146;2023-01-28T01:23:46;102867.22;;;2.76;97.39
31538;BME280;18147;51.952;6.146;2023-01-28T01:26:12;102869.88;;;2.77;97.46
31538;BME280;18147;51.952;6.146;2023-01-28T01:28:37;102877.75;;;2.80;98.83
31538;BME280;18147;51.952;6.146;2023-01-28T01:31:10;102879.53;;;2.86;97.51
31538;BME280;18147;51.952;6.146;2023-01-28T01:33:36;102888.34;;;2.88;97.83
31538;BME280;18147;51.952;6.146;2023-01-28T01:36:04;102881.28;;;2.85;98.18
31538;BME280;18147;51.952;6.146;2023-01-28T01:38:30;102870.78;;;2.92;99.12
31538;BME280;18147;51.952;6.146;2023-01-28T01:40:57;102873.44;;;2.96;98.48
31538;BME280;18147;51.952;6.146;2023-01-28T01:43:24;102873.41;;;2.99;97.10
31538;BME280;18147;51.952;6.146;2023-01-28T01:45:54;102863.75;;;3.06;97.51
31538;BME280;18147;51.952;6.146;2023-01-28T01:48:27;102864.59;;;3.31;96.47
31538;BME280;18147;51.952;6.146;2023-01-28T01:51:11;102864.63;;;3.13;96.03
31538;BME280;18147;51.952;6.146;2023-01-28T01:53:42;102865.50;;;2.92;99.20
31538;BME280;18147;51.952;6.146;2023-01-28T01:56:13;102860.22;;;3.05;98.36
31538;BME280;18147;51.952;6.146;2023-01-28T01:58:41;102865.50;;;2.93;97.42
31538;BME280;18147;51.952;6.146;2023-01-28T02:01:09;102868.09;;;2.79;96.99
31538;BME280;18147;51.952;6.146;2023-01-28T02:06:16;102869.88;;;2.94;95.94
31538;BME280;18147;51.952;6.146;2023-01-28T02:08:43;102874.31;;;3.07;95.49
31538;BME280;18147;51.952;6.146;2023-01-28T02:11:10;102870.75;;;3.05;94.55
31538;BME280;18147;51.952;6.146;2023-01-28T02:13:46;102869.91;;;3.13;95.03
31538;BME280;18147;51.952;6.146;2023-01-28T02:16:12;102871.66;;;3.09;95.73
31538;BME280;18147;51.952;6.146;2023-01-28T02:18:38;102872.53;;;3.13;99.60
31538;BME280;18147;51.952;6.146;2023-01-28T02:21:18;102869.03;;;3.17;100.00
31538;BME280;18147;51.952;6.146;2023-01-28T02:24:10;102871.66;;;3.12;100.00
31538;BME280;18147;51.952;6.146;2023-01-28T02:27:02;102876.91;;;3.00;100.00
31538;BME280;18147;51.952;6.146;2023-01-28T02:29:40;102877.81;;;2.99;100.00
31538;BME280;18147;51.952;6.146;2023-01-28T02:32:19;102878.69;;;3.04;100.00
31538;BME280;18147;51.952;6.146;2023-01-28T02:35:06;102890.94;;;2.79;100.00
31538;BME280;18147;51.952;6.146;2023-01-28T02:37:37;102891.75;;;2.47;100.00
31538;BME280;18147;51.952;6.146;2023-01-28T02:40:12;102890.84;;;2.42;100.00
31538;BME280;18147;51.952;6.146;2023-01-28T02:42:40;102879.50;;;2.65;100.00
31538;BME280;18147;51.952;6.146;2023-01-28T02:45:35;102879.41;;;2.34;100.00
31538;BME280;18147;51.952;6.146;2023-01-28T02:48:20;102881.19;;;2.43;100.00
31538;BME280;18147;51.952;6.146;2023-01-28T02:51:09;102879.41;;;2.36;100.00
31538;BME280;18147;51.952;6.146;2023-01-28T02:53:48;102890.00;;;2.48;100.00
31538;BME280;18147;51.952;6.146;2023-01-28T02:56:37;102882.06;;;2.45;100.00
31538;BME280;18147;51.952;6.146;2023-01-28T02:59:20;102883.88;;;2.58;100.00
31538;BME280;18147;51.952;6.146;2023-01-28T03:02:08;102882.03;;;2.28;100.00
31538;BME280;18147;51.952;6.146;2023-01-28T03:04:46;102889.03;;;2.24;100.00
31538;BME280;18147;51.952;6.146;2023-01-28T03:07:16;102894.22;;;2.15;100.00
31538;BME280;18147;51.952;6.146;2023-01-28T03:09:45;102895.16;;;2.22;100.00
31538;BME280;18147;51.952;6.146;2023-01-28T03:12:17;102885.50;;;2.25;100.00
31538;BME280;18147;51.952;6.146;2023-01-28T03:15:15;102889.91;;;2.22;100.00
31538;BME280;18147;51.952;6.146;2023-01-28T03:21:11;102878.47;;;2.17;100.00
31538;BME280;18147;51.952;6.146;2023-01-28T03:23:59;102887.25;;;2.17;100.00
31538;BME280;18147;51.952;6.146;2023-01-28T03:29:50;102881.00;;;1.92;100.00
31538;BME280;18147;51.952;6.146;2023-01-28T03:32:37;102880.06;;;1.90;100.00
31538;BME280;18147;51.952;6.146;2023-01-28T03:35:23;102879.28;;;2.05;100.00
31538;BME280;18147;51.952;6.146;2023-01-28T03:38:10;102885.38;;;1.95;100.00
31538;BME280;18147;51.952;6.146;2023-01-28T03:40:55;102884.53;;;1.96;100.00
31538;BME280;18147;51.952;6.146;2023-01-28T03:43:22;102881.00;;;2.00;100.00
31538;BME280;18147;51.952;6.146;2023-01-28T03:45:48;102880.16;;;2.04;100.00
31538;BME280;18147;51.952;6.146;2023-01-28T03:48:22;102886.28;;;2.04;100.00
31538;BME280;18147;51.952;6.146;2023-01-28T03:50:49;102881.94;;;2.08;100.00
31538;BME280;18147;51.952;6.146;2023-01-28T03:53:16;102888.91;;;2.00;100.00
31538;BME280;18147;51.952;6.146;2023-01-28T03:55:48;102895.88;;;1.95;100.00
31538;BME280;18147;51.952;6.146;2023-01-28T03:58:14;102900.25;;;1.88;100.00
31538;BME280;18147;51.952;6.146;2023-01-28T04:00:40;102902.97;;;2.02;100.00
31538;BME280;18147;51.952;6.146;2023-01-28T04:03:13;102909.91;;;1.95;100.00
31538;BME280;18147;51.952;6.146;2023-01-28T04:06:04;102906.38;;;1.87;100.00
31538;BME280;18147;51.952;6.146;2023-01-28T04:08:52;102903.69;;;1.76;98.72
31538;BME280;18147;51.952;6.146;2023-01-28T04:11:29;102903.72;;;1.81;99.00
31538;BME280;18147;51.952;6.146;2023-01-28T04:13:56;102905.44;;;1.76;98.16
31538;BME280;18147;51.952;6.146;2023-01-28T04:16:23;102902.81;;;1.77;98.19
31538;BME280;18147;51.952;6.146;2023-01-28T04:18:48;102899.31;;;1.78;94.21
31538;BME280;18147;51.952;6.146;2023-01-28T04:21:15;102899.34;;;1.85;93.73
31538;BME280;18147;51.952;6.146;2023-01-28T04:23:40;102905.47;;;1.82;92.83
31538;BME280;18147;51.952;6.146;2023-01-28T04:26:06;102901.94;;;1.77;92.13
31538;BME280;18147;51.952;6.146;2023-01-28T04:28:33;102899.38;;;1.88;93.38
31538;BME280;18147;51.952;6.146;2023-01-28T04:30:59;102903.78;;;1.95;93.06
31538;BME280;18147;51.952;6.146;2023-01-28T04:33:30;102902.00;;;1.88;92.82
31538;BME280;18147;51.952;6.146;2023-01-28T04:36:11;102903.72;;;1.83;92.47
31538;BME280;18147;51.952;6.146;2023-01-28T04:38:54;102901.13;;;1.89;91.05
31538;BME280;18147;51.952;6.146;2023-01-28T04:41:34;102908.97;;;1.83;94.20
31538;BME280;18147;51.952;6.146;2023-01-28T04:44:06;102908.94;;;1.76;95.45
31538;BME280;18147;51.952;6.146;2023-01-28T04:46:40;102910.81;;;1.96;94.44
31538;BME280;18147;51.952;6.146;2023-01-28T04:49:19;102909.91;;;1.86;91.45
31538;BME280;18147;51.952;6.146;2023-01-28T04:52:11;102909.09;;;2.01;93.35
31538;BME280;18147;51.952;6.146;2023-01-28T04:54:55;102913.47;;;1.96;95.76
31538;BME280;18147;51.952;6.146;2023-01-28T04:57:21;102909.91;;;1.88;94.96
31538;BME280;18147;51.952;6.146;2023-01-28T04:59:47;102921.16;;;1.67;97.05
31538;BME280;18147;51.952;6.146;2023-01-28T05:02:14;102922.06;;;1.75;96.32
31538;BME280;18147;51.952;6.146;2023-01-28T05:04:41;102919.50;;;1.83;95.29
31538;BME280;18147;51.952;6.146;2023-01-28T05:07:09;102921.34;;;1.99;95.50
31538;BME280;18147;51.952;6.146;2023-01-28T05:09:37;102922.03;;;1.67;95.52
31538;BME280;18147;51.952;6.146;2023-01-28T05:12:11;102919.47;;;1.79;96.13
31538;BME280;18147;51.952;6.146;2023-01-28T05:14:38;102923.72;;;1.61;97.19
31538;BME280;18147;51.952;6.146;2023-01-28T05:17:06;102931.63;;;1.65;94.93
31538;BME280;18147;51.952;6.146;2023-01-28T05:19:32;102915.78;;;1.53;96.86
31538;BME280;18147;51.952;6.146;2023-01-28T05:21:59;102915.88;;;1.62;94.89
31538;BME280;18147;51.952;6.146;2023-01-28T05:24:37;102915.94;;;1.71;93.59
31538;BME280;18147;51.952;6.146;2023-01-28T05:27:02;102911.47;;;1.63;94.05
31538;BME280;18147;51.952;6.146;2023-01-28T05:29:28;102918.53;;;1.68;93.70
31538;BME280;18147;51.952;6.146;2023-01-28T05:31:55;102921.13;;;1.65;94.36
31538;BME280;18147;51.952;6.146;2023-01-28T05:34:21;102918.41;;;1.54;95.07
31538;BME280;18147;51.952;6.146;2023-01-28T05:36:47;102917.59;;;1.60;96.62
31538;BME280;18147;51.952;6.146;2023-01-28T05:39:28;102908.88;;;1.70;98.12
31538;BME280;18147;51.952;6.146;2023-01-28T05:41:55;102911.41;;;1.52;98.96
31538;BME280;18147;51.952;6.146;2023-01-28T05:44:21;102907.03;;;1.51;100.00
31538;BME280;18147;51.952;6.146;2023-01-28T05:47:05;102911.34;;;1.44;96.78
31538;BME280;18147;51.952;6.146;2023-01-28T05:49:43;102910.53;;;1.53;92.82
31538;BME280;18147;51.952;6.146;2023-01-28T05:52:27;102915.78;;;1.54;97.03
31538;BME280;18147;51.952;6.146;2023-01-28T05:54:52;102920.97;;;1.42;98.27
31538;BME280;18147;51.952;6.146;2023-01-28T05:57:18;102922.69;;;1.39;100.00
31538;BME280;18147;51.952;6.146;2023-01-28T05:59:43;102919.13;;;1.35;95.98
31538;BME280;18147;51.952;6.146;2023-01-28T06:02:10;102925.31;;;1.37;96.47
31538;BME280;18147;51.952;6.146;2023-01-28T06:04:35;102924.34;;;1.26;96.17
31538;BME280;18147;51.952;6.146;2023-01-28T06:07:01;102925.22;;;1.26;96.88
31538;BME280;18147;51.952;6.146;2023-01-28T06:09:27;102922.50;;;1.20;96.82
31538;BME280;18147;51.952;6.146;2023-01-28T06:11:52;102926.06;;;1.21;96.91
31538;BME280;18147;51.952;6.146;2023-01-28T06:14:18;102919.06;;;1.24;96.81
31538;BME280;18147;51.952;6.146;2023-01-28T06:17:03;102929.47;;;1.15;95.78
31538;BME280;18147;51.952;6.146;2023-01-28T06:20:00;102929.53;;;1.20;93.90
31538;BME280;18147;51.952;6.146;2023-01-28T06:22:28;102933.94;;;1.25;93.26
31538;BME280;18147;51.952;6.146;2023-01-28T06:24:53;102931.34;;;1.30;91.50
31538;BME280;18147;51.952;6.146;2023-01-28T06:27:19;102931.41;;;1.33;94.03
31538;BME280;18147;51.952;6.146;2023-01-28T06:29:46;102923.53;;;1.35;93.71
31538;BME280;18147;51.952;6.146;2023-01-28T06:32:12;102928.59;;;1.15;94.00
31538;BME280;18147;51.952;6.146;2023-01-28T06:34:37;102926.16;;;1.35;94.89
31538;BME280;18147;51.952;6.146;2023-01-28T06:37:03;102926.06;;;1.24;94.07
31538;BME280;18147;51.952;6.146;2023-01-28T06:39:29;102933.84;;;1.13;93.83
31538;BME280;18147;51.952;6.146;2023-01-28T06:41:57;102932.94;;;1.10;94.54
31538;BME280;18147;51.952;6.146;2023-01-28T06:44:22;102931.19;;;1.09;93.55
31538;BME280;18147;51.952;6.146;2023-01-28T06:46:48;102944.31;;;1.09;93.52
31538;BME280;18147;51.952;6.146;2023-01-28T06:49:14;102931.16;;;1.06;94.86
31538;BME280;18147;51.952;6.146;2023-01-28T06:51:39;102936.31;;;0.98;93.73
31538;BME280;18147;51.952;6.146;2023-01-28T06:54:05;102940.81;;;1.07;94.32
31538;BME280;18147;51.952;6.146;2023-01-28T06:56:30;102944.34;;;1.12;92.80
31538;BME280;18147;51.952;6.146;2023-01-28T06:58:55;102946.00;;;1.05;93.80
31538;BME280;18147;51.952;6.146;2023-01-28T07:01:21;102947.97;;;1.24;94.70
31538;BME280;18147;51.952;6.146;2023-01-28T07:03:46;102934.94;;;1.37;92.33
31538;BME280;18147;51.952;6.146;2023-01-28T07:06:12;102939.38;;;1.45;90.48
31538;BME280;18147;51.952;6.146;2023-01-28T07:08:37;102938.72;;;1.72;90.14
31538;BME280;18147;51.952;6.146;2023-01-28T07:11:04;102955.13;;;1.42;93.51
31538;BME280;18147;51.952;6.146;2023-01-28T07:13:30;102968.16;;;1.27;93.79
31538;BME280;18147;51.952;6.146;2023-01-28T07:15:55;102970.81;;;1.35;93.59
31538;BME280;18147;51.952;6.146;2023-01-28T07:18:21;102965.63;;;1.38;93.60
31538;BME280;18147;51.952;6.146;2023-01-28T07:20:46;102962.19;;;1.49;93.20
31538;BME280;18147;51.952;6.146;2023-01-28T07:23:12;102976.06;;;1.32;93.30
31538;BME280;18147;51.952;6.146;2023-01-28T07:25:37;102975.97;;;1.22;95.41
31538;BME280;18147;51.952;6.146;2023-01-28T07:28:03;102973.16;;;1.02;95.92
31538;BME280;18147;51.952;6.146;2023-01-28T07:30:29;102972.34;;;1.08;95.50
31538;BME280;18147;51.952;6.146;2023-01-28T07:32:56;102982.72;;;0.99;93.90
31538;BME280;18147;51.952;6.146;2023-01-28T07:35:22;102987.88;;;0.90;95.20
31538;BME280;18147;51.952;6.146;2023-01-28T07:40:17;102995.06;;;1.04;90.75
31538;BME280;18147;51.952;6.146;2023-01-28T07:42:44;102990.19;;;1.44;89.43
31538;BME280;18147;51.952;6.146;2023-01-28T07:45:10;103001.34;;;1.19;89.62
31538;BME280;18147;51.952;6.146;2023-01-28T07:47:36;103003.44;;;1.53;89.84
31538;BME280;18147;51.952;6.146;2023-01-28T07:50:01;103011.19;;;1.40;90.61
31538;BME280;18147;51.952;6.146;2023-01-28T07:52:27;103009.41;;;1.37;91.11
31538;BME280;18147;51.952;6.146;2023-01-28T07:54:52;103008.41;;;1.24;93.59
31538;BME280;18147;51.952;6.146;2023-01-28T07:57:18;103001.50;;;1.34;91.55
31538;BME280;18147;51.952;6.146;2023-01-28T07:59:50;102989.31;;;1.42;91.95
31538;BME280;18147;51.952;6.146;2023-01-28T08:02:16;102993.72;;;1.46;89.70
31538;BME280;18147;51.952;6.146;2023-01-28T08:04:42;103008.72;;;1.60;90.09
31538;BME280;18147;51.952;6.146;2023-01-28T08:07:07;103007.94;;;1.68;89.99
31538;BME280;18147;51.952;6.146;2023-01-28T08:09:33;103008.72;;;1.60;90.14
31538;BME280;18147;51.952;6.146;2023-01-28T08:12:00;103013.13;;;1.61;91.98
31538;BME280;18147;51.952;6.146;2023-01-28T08:14:27;103008.94;;;1.83;91.08
31538;BME280;18147;51.952;6.146;2023-01-28T08:16:54;103012.69;;;2.20;91.73
31538;BME280;18147;51.952;6.146;2023-01-28T08:19:19;103007.47;;;2.21;89.18
31538;BME280;18147;51.952;6.146;2023-01-28T08:21:48;103014.50;;;2.27;90.65
31538;BME280;18147;51.952;6.146;2023-01-28T08:24:14;103028.47;;;2.17;91.14
31538;BME280;18147;51.952;6.146;2023-01-28T08:26:40;103024.16;;;2.26;90.09
31538;BME280;18147;51.952;6.146;2023-01-28T08:29:05;103020.59;;;2.20;90.66
31538;BME280;18147;51.952;6.146;2023-01-28T08:31:42;103022.34;;;2.16;90.41
31538;BME280;18147;51.952;6.146;2023-01-28T08:34:07;103024.19;;;2.32;90.54
31538;BME280;18147;51.952;6.146;2023-01-28T08:36:33;103025.81;;;2.12;89.08
31538;BME280;18147;51.952;6.146;2023-01-28T08:38:58;103037.13;;;1.99;89.10
31538;BME280;18147;51.952;6.146;2023-01-28T08:41:24;103036.19;;;1.95;91.16
31538;BME280;18147;51.952;6.146;2023-01-28T08:43:49;103044.84;;;1.77;90.60
31538;BME280;18147;51.952;6.146;2023-01-28T08:46:15;103046.53;;;1.72;92.59
31538;BME280;18147;51.952;6.146;2023-01-28T08:48:41;103032.88;;;2.16;90.22
31538;BME280;18147;51.952;6.146;2023-01-28T08:51:06;103018.16;;;2.55;88.76
31538;BME280;18147;51.952;6.146;2023-01-28T08:53:32;103025.78;;;2.09;87.67
31538;BME280;18147;51.952;6.146;2023-01-28T08:55:57;103046.63;;;1.83;91.40
31538;BME280;18147;51.952;6.146;2023-01-28T08:58:23;103045.84;;;1.95;90.55
31538;BME280;18147;51.952;6.146;2023-01-28T09:00:49;103058.91;;;1.83;91.49
31538;BME280;18147;51.952;6.146;2023-01-28T09:03:15;103056.16;;;1.69;91.28
31538;BME280;18147;51.952;6.146;2023-01-28T09:05:41;103045.66;;;1.72;92.45
31538;BME280;18147;51.952;6.146;2023-01-28T09:08:12;103051.81;;;1.72;92.98
31538;BME280;18147;51.952;6.146;2023-01-28T09:10:38;103057.06;;;1.75;94.70
31538;BME280;18147;51.952;6.146;2023-01-28T09:13:06;103047.47;;;1.77;94.43
31538;BME280;18147;51.952;6.146;2023-01-28T09:15:33;103048.25;;;1.67;94.61
31538;BME280;18147;51.952;6.146;2023-01-28T09:17:58;103044.84;;;1.76;94.70
31538;BME280;18147;51.952;6.146;2023-01-28T09:20:24;103056.22;;;1.76;96.52
31538;BME280;18147;51.952;6.146;2023-01-28T09:22:51;103048.59;;;2.10;94.22
31538;BME280;18147;51.952;6.146;2023-01-28T09:25:18;103042.41;;;2.05;91.68
31538;BME280;18147;51.952;6.146;2023-01-28T09:27:43;103061.81;;;2.16;90.72
31538;BME280;18147;51.952;6.146;2023-01-28T09:30:09;103056.53;;;2.12;92.05
31538;BME280;18147;51.952;6.146;2023-01-28T09:32:35;103075.75;;;2.03;91.28
31538;BME280;18147;51.952;6.146;2023-01-28T09:35:01;103078.28;;;1.94;93.04
31538;BME280;18147;51.952;6.146;2023-01-28T09:37:26;103082.75;;;2.01;94.50
31538;BME280;18147;51.952;6.146;2023-01-28T09:39:52;103084.34;;;1.82;94.64
31538;BME280;18147;51.952;6.146;2023-01-28T09:47:51;103076.81;;;2.28;92.14
31538;BME280;18147;51.952;6.146;2023-01-28T09:50:26;103080.13;;;2.02;93.37
31538;BME280;18147;51.952;6.146;2023-01-28T09:52:58;103088.78;;;1.91;94.29
31538;BME280;18147;51.952;6.146;2023-01-28T09:55:35;103093.09;;;1.81;93.93
31538;BME280;18147;51.952;6.146;2023-01-28T09:58:09;103102.66;;;1.73;96.03
31538;BME280;18147;51.952;6.146;2023-01-28T10:01:21;103102.84;;;1.91;97.52
31538;BME280;18147;51.952;6.146;2023-01-28T10:06:52;103109.63;;;1.68;96.43
31538;BME280;18147;51.952;6.146;2023-01-28T10:09:38;103107.88;;;1.68;94.93
31538;BME280;18147;51.952;6.146;2023-01-28T10:12:35;103109.09;;;2.07;93.91
31538;BME280;18147;51.952;6.146;2023-01-28T10:17:41;103102.88;;;1.97;93.89
31538;BME280;18147;51.952;6.146;2023-01-28T10:22:41;103085.69;;;2.44;91.91
31538;BME280;18147;51.952;6.146;2023-01-28T10:25:17;103088.31;;;2.42;90.48
31538;BME280;18147;51.952;6.146;2023-01-28T10:27:44;103097.22;;;2.66;89.55
31538;BME280;18147;51.952;6.146;2023-01-28T10:32:46;103080.47;;;2.56;89.53
31538;BME280;18147;51.952;6.146;2023-01-28T10:35:15;103095.41;;;2.54;89.65
31538;BME280;18147;51.952;6.146;2023-01-28T10:37:40;103094.53;;;2.52;90.66
31538;BME280;18147;51.952;6.146;2023-01-28T10:40:11;103094.50;;;2.50;88.75
31538;BME280;18147;51.952;6.146;2023-01-28T10:42:37;103094.59;;;2.61;89.49
31538;BME280;18147;51.952;6.146;2023-01-28T10:47:59;103087.59;;;2.66;89.72
31538;BME280;18147;51.952;6.146;2023-01-28T10:50:29;103081.63;;;3.02;88.27
31538;BME280;18147;51.952;6.146;2023-01-28T10:52:57;103061.50;;;3.40;85.50
31538;BME280;18147;51.952;6.146;2023-01-28T10:55:26;103064.06;;;3.10;85.16
31538;BME280;18147;51.952;6.146;2023-01-28T10:57:53;103066.53;;;2.71;86.31
31538;BME280;18147;51.952;6.146;2023-01-28T11:00:23;103057.00;;;2.99;88.88
31538;BME280;18147;51.952;6.146;2023-01-28T11:02:50;103057.00;;;2.97;87.81
31538;BME280;18147;51.952;6.146;2023-01-28T11:05:48;103051.72;;;2.99;87.08
31538;BME280;18147;51.952;6.146;2023-01-28T11:08:15;103051.66;;;2.83;88.11
31538;BME280;18147;51.952;6.146;2023-01-28T11:10:42;103044.56;;;2.69;88.36
31538;BME280;18147;51.952;6.146;2023-01-28T11:13:25;103029.78;;;3.06;86.10
31538;BME280;18147;51.952;6.146;2023-01-28T11:16:02;103035.91;;;2.99;86.63
31538;BME280;18147;51.952;6.146;2023-01-28T11:18:30;103042.97;;;3.03;88.18
31538;BME280;18147;51.952;6.146;2023-01-28T11:20:58;103034.97;;;2.84;86.94
31538;BME280;18147;51.952;6.146;2023-01-28T11:23:48;103034.91;;;2.68;88.61
31538;BME280;18147;51.952;6.146;2023-01-28T11:26:17;103024.41;;;2.78;88.24
31538;BME280;18147;51.952;6.146;2023-01-28T11:28:44;103018.38;;;3.02;87.34
31538;BME280;18147;51.952;6.146;2023-01-28T11:31:16;103020.94;;;2.84;87.60
31538;BME280;18147;51.952;6.146;2023-01-28T11:33:43;103006.69;;;2.45;87.37
31538;BME280;18147;51.952;6.146;2023-01-28T11:36:18;102987.50;;;2.66;85.88
31538;BME280;18147;51.952;6.146;2023-01-28T11:39:01;102968.19;;;2.67;88.02
31538;BME280;18147;51.952;6.146;2023-01-28T11:41:37;102968.22;;;2.72;85.96
31538;BME280;18147;51.952;6.146;2023-01-28T11:44:18;102958.44;;;2.48;88.19
31538;BME280;18147;51.952;6.146;2023-01-28T11:47:44;102949.78;;;2.72;88.22
31538;BME280;18147;51.952;6.146;2023-01-28T11:50:24;102955.88;;;2.69;87.26
31538;BME280;18147;51.952;6.146;2023-01-28T12:03:22;102955.00;;;2.70;85.66
31538;BME280;18147;51.952;6.146;2023-01-28T12:09:17;102963.00;;;2.87;84.92
31538;BME280;18147;51.952;6.146;2023-01-28T12:15:03;102961.28;;;3.15;84.62
31538;BME280;18147;51.952;6.146;2023-01-28T12:24:23;102977.94;;;3.05;82.78
31538;BME280;18147;51.952;6.146;2023-01-28T12:27:00;102972.72;;;3.23;82.08
31538;BME280;18147;51.952;6.146;2023-01-28T12:32:07;102978.00;;;3.60;81.47
31538;BME280;18147;51.952;6.146;2023-01-28T12:34:58;102964.81;;;3.51;80.65
31538;BME280;18147;51.952;6.146;2023-01-28T12:37:35;102972.66;;;2.96;81.25
31538;BME280;18147;51.952;6.146;2023-01-28T12:43:21;102976.22;;;3.30;80.19
31538;BME280;18147;51.952;6.146;2023-01-28T12:46:02;102963.06;;;3.28;79.86
31538;BME280;18147;51.952;6.146;2023-01-28T12:48:43;102970.97;;;3.51;80.36
31538;BME280;18147;51.952;6.146;2023-01-28T12:51:25;102970.97;;;3.54;80.44
31538;BME280;18147;51.952;6.146;2023-01-28T12:53:56;102972.75;;;3.37;80.68
31538;BME280;18147;51.952;6.146;2023-01-28T12:56:32;102976.22;;;3.07;79.51
31538;BME280;18147;51.952;6.146;2023-01-28T12:59:00;102978.88;;;3.41;80.84
31538;BME280;18147;51.952;6.146;2023-01-28T13:01:41;102972.69;;;3.16;81.18
31538;BME280;18147;51.952;6.146;2023-01-28T13:06:40;102971.88;;;3.36;80.78
31538;BME280;18147;51.952;6.146;2023-01-28T13:09:15;102969.22;;;3.55;80.13
31538;BME280;18147;51.952;6.146;2023-01-28T13:11:42;102966.56;;;3.66;80.64
31538;BME280;18147;51.952;6.146;2023-01-28T13:14:11;102952.50;;;3.93;79.21
31538;BME280;18147;51.952;6.146;2023-01-28T13:16:37;102955.13;;;3.80;78.23
31538;BME280;18147;51.952;6.146;2023-01-28T13:21:42;102957.47;;;4.80;77.97
31538;BME280;18147;51.952;6.146;2023-01-28T13:26:50;102950.72;;;3.99;76.82
31538;BME280;18147;51.952;6.146;2023-01-28T13:31:52;102926.94;;;4.07;77.62
31538;BME280;18147;51.952;6.146;2023-01-28T13:34:36;102915.44;;;4.20;78.97
31538;BME280;18147;51.952;6.146;2023-01-28T13:42:38;102885.72;;;3.17;80.37
31538;BME280;18147;51.952;6.146;2023-01-28T13:47:46;102872.53;;;3.02;81.74
31538;BME280;18147;51.952;6.146;2023-01-28T13:50:19;102869.91;;;3.14;82.24
31538;BME280;18147;51.952;6.146;2023-01-28T13:55:22;102889.22;;;3.30;81.67
31538;BME280;18147;51.952;6.146;2023-01-28T13:58:06;102899.78;;;3.33;81.45
31538;BME280;18147;51.952;6.146;2023-01-28T14:01:16;102912.97;;;3.48;80.72
31538;BME280;18147;51.952;6.146;2023-01-28T14:12:39;102905.94;;;3.52;79.66
31538;BME280;18147;51.952;6.146;2023-01-28T14:15:24;102904.16;;;3.63;79.14
31538;BME280;18147;51.952;6.146;2023-01-28T14:17:56;102913.84;;;3.62;77.93
31538;BME280;18147;51.952;6.146;2023-01-28T14:23:00;102919.09;;;3.35;78.70
31538;BME280;18147;51.952;6.146;2023-01-28T14:25:49;102927.88;;;3.46;78.58
31538;BME280;18147;51.952;6.146;2023-01-28T14:31:03;102930.56;;;3.43;78.88
31538;BME280;18147;51.952;6.146;2023-01-28T14:33:30;102935.81;;;3.51;77.85
31538;BME280;18147;51.952;6.146;2023-01-28T14:35:56;102947.25;;;3.47;78.24
31538;BME280;18147;51.952;6.146;2023-01-28T14:38:23;102938.44;;;3.35;78.56
31538;BME280;18147;51.952;6.146;2023-01-28T14:40:52;102939.31;;;3.41;78.33
31538;BME280;18147;51.952;6.146;2023-01-28T14:43:21;102931.41;;;3.54;78.97
31538;BME280;18147;51.952;6.146;2023-01-28T14:56:30;102935.81;;;3.06;80.63
31538;BME280;18147;51.952;6.146;2023-01-28T14:59:03;102925.25;;;3.05;80.67
31538;BME280;18147;51.952;6.146;2023-01-28T15:01:32;102923.50;;;3.15;80.78
31538;BME280;18147;51.952;6.146;2023-01-28T15:03:57;102930.50;;;3.00;80.96